createdAt,value
2023-05-15T00:00:45.297Z,39470.19
2023-05-15T00:03:12.266Z,39490.13
2023-05-15T00:05:39.387Z,39484.16
2023-05-15T00:08:06.021Z,39486.13
2023-05-15T00:10:32.430Z,39490.13
2023-05-15T00:12:58.816Z,39536.00
2023-05-15T00:15:25.687Z,39504.09
2023-05-15T00:17:52.361Z,39512.06
2023-05-15T00:20:18.954Z,39547.97
2023-05-15T00:22:45.503Z,39549.97
2023-05-15T00:25:11.881Z,39547.97
2023-05-15T00:27:38.295Z,39567.94
2023-05-15T00:30:05.750Z,39583.88
2023-05-15T00:32:32.693Z,39587.88
2023-05-15T00:34:59.208Z,39601.84
2023-05-15T00:37:25.801Z,39611.81
2023-05-15T00:39:52.236Z,39607.84
2023-05-15T00:42:19.281Z,39611.81
2023-05-15T00:44:47.216Z,39605.84
2023-05-15T00:47:14.248Z,39619.81
2023-05-15T00:49:41.562Z,39631.78
2023-05-15T00:52:08.552Z,39617.81
2023-05-15T00:54:35.422Z,39647.72
2023-05-15T00:57:05.796Z,39687.63
2023-05-15T00:59:32.674Z,39679.66
2023-05-15T01:01:59.236Z,39707.56
2023-05-15T01:04:25.824Z,39695.59
2023-05-15T01:06:55.113Z,39701.59
2023-05-15T01:09:24.736Z,39739.50
2023-05-15T01:11:54.443Z,39717.56
2023-05-15T01:14:21.056Z,39733.50
2023-05-15T01:16:48.012Z,39755.47
2023-05-15T01:19:15.001Z,39793.38
2023-05-15T01:22:20.766Z,39791.38
2023-05-15T01:25:06.202Z,39819.31
2023-05-15T01:27:48.951Z,39811.31
2023-05-15T01:30:15.318Z,39837.25
2023-05-15T01:32:54.368Z,39823.28
2023-05-15T01:35:45.166Z,39835.25
2023-05-15T01:38:34.437Z,39851.22
2023-05-15T01:41:24.048Z,39867.19
2023-05-15T01:44:08.370Z,39889.13
2023-05-15T01:46:39.265Z,39891.13
2023-05-15T01:49:10.796Z,39885.16
2023-05-15T01:51:39.234Z,39899.09
2023-05-15T01:54:08.836Z,39935.03
2023-05-15T01:56:36.469Z,39931.03
2023-05-15T01:59:05.335Z,39950.97
2023-05-15T02:01:32.886Z,39966.94
2023-05-15T02:04:01.490Z,39974.94
2023-05-15T02:06:31.475Z,39962.94
2023-05-15T02:08:59.302Z,39978.91
2023-05-15T02:11:25.862Z,39976.91
2023-05-15T02:13:54.724Z,39994.88
2023-05-15T02:16:21.491Z,40026.81
2023-05-15T02:18:48.841Z,40002.84
2023-05-15T02:21:15.970Z,40042.75
2023-05-15T02:23:42.495Z,40032.78
2023-05-15T02:26:30.763Z,40072.69
2023-05-15T02:29:25.713Z,40074.69
2023-05-15T02:32:17.306Z,40090.66
2023-05-15T02:34:58.732Z,40114.59
2023-05-15T02:37:28.750Z,40106.59
2023-05-15T02:39:59.803Z,40138.53
2023-05-15T02:42:30.949Z,40170.47
2023-05-15T02:44:58.264Z,40180.44
2023-05-15T02:47:25.426Z,40166.47
2023-05-15T02:49:52.881Z,40236.31
2023-05-15T02:52:19.882Z,40250.28
2023-05-15T02:54:46.323Z,40268.22
2023-05-15T02:57:13.134Z,40290.19
2023-05-15T02:59:39.605Z,40322.09
2023-05-15T03:02:06.056Z,40358.03
2023-05-15T03:04:32.702Z,40397.94
2023-05-15T03:06:59.139Z,40437.84
2023-05-15T03:09:25.617Z,40475.75
2023-05-15T03:11:52.112Z,40497.72
2023-05-15T03:14:18.672Z,40541.59
2023-05-15T03:16:45.498Z,40565.56
2023-05-15T03:19:12.051Z,40589.50
2023-05-15T03:21:38.537Z,40599.47
2023-05-15T03:24:05.262Z,40609.44
2023-05-15T03:26:31.703Z,40637.41
2023-05-15T03:28:58.508Z,40617.44
2023-05-15T03:31:25.135Z,40629.41
2023-05-15T03:33:51.679Z,40659.34
2023-05-15T03:36:18.073Z,40673.31
2023-05-15T03:38:44.835Z,40645.38
2023-05-15T03:41:11.254Z,40635.41
2023-05-15T03:43:37.712Z,40619.44
2023-05-15T03:46:04.865Z,40645.38
2023-05-15T03:48:31.312Z,40621.44
2023-05-15T03:50:57.838Z,40635.41
2023-05-15T03:53:24.879Z,40629.41
2023-05-15T03:55:52.545Z,40629.41
2023-05-15T03:58:19.122Z,40613.44
2023-05-15T04:00:45.770Z,40627.41
2023-05-15T04:03:12.728Z,40613.44
2023-05-15T04:05:39.393Z,40583.50
2023-05-15T04:08:06.037Z,40605.47
2023-05-15T04:10:33.625Z,40589.50
2023-05-15T04:13:00.160Z,40599.47
2023-05-15T04:15:29.155Z,40605.47
2023-05-15T04:17:55.867Z,40597.47
2023-05-15T04:20:24.116Z,40605.47
2023-05-15T04:22:52.035Z,40611.44
2023-05-15T04:25:20.079Z,40643.38
2023-05-15T04:27:46.955Z,40637.41
2023-05-15T04:30:13.996Z,40659.34
2023-05-15T04:32:41.103Z,40679.31
2023-05-15T04:35:10.449Z,40723.19
2023-05-15T04:37:40.501Z,40697.25
2023-05-15T04:40:08.330Z,40699.25
2023-05-15T04:42:36.784Z,40753.13
2023-05-15T04:45:06.092Z,40761.13
2023-05-15T04:47:32.557Z,40749.16
2023-05-15T04:49:59.035Z,40773.09
2023-05-15T04:52:25.434Z,40785.06
2023-05-15T04:54:52.958Z,40813.00
2023-05-15T04:57:19.446Z,40821.00
2023-05-15T04:59:45.842Z,40832.97
2023-05-15T05:02:12.282Z,40828.97
2023-05-15T05:04:38.774Z,40836.97
2023-05-15T05:07:05.819Z,40844.94
2023-05-15T05:09:32.262Z,40832.97
2023-05-15T05:11:59.885Z,40828.97
2023-05-15T05:14:26.696Z,40828.97
2023-05-15T05:16:53.085Z,40828.97
2023-05-15T05:19:19.667Z,40824.97
2023-05-15T05:21:46.073Z,40813.00
2023-05-15T05:24:12.434Z,40840.94
2023-05-15T05:26:39.121Z,40811.00
2023-05-15T05:29:05.591Z,40793.06
2023-05-15T05:31:32.095Z,40805.03
2023-05-15T05:33:58.498Z,40787.06
2023-05-15T05:36:24.881Z,40785.06
2023-05-15T05:38:51.339Z,40789.06
2023-05-15T05:41:17.724Z,40789.06
2023-05-15T05:43:44.268Z,40765.13
2023-05-15T05:46:10.990Z,40773.09
2023-05-15T05:48:37.407Z,40749.16
2023-05-15T05:51:04.018Z,40741.16
2023-05-15T05:53:30.531Z,40757.13
2023-05-15T05:55:57.167Z,40761.13
2023-05-15T05:58:25.956Z,40773.09
2023-05-15T06:00:53.537Z,40745.16
2023-05-15T06:03:20.812Z,40753.13
2023-05-15T06:05:48.484Z,40745.16
2023-05-15T06:08:15.123Z,40727.19
2023-05-15T06:10:42.288Z,40717.22
2023-05-15T06:13:08.823Z,40661.34
2023-05-15T06:15:35.612Z,40661.34
2023-05-15T06:18:02.270Z,40619.44
2023-05-15T06:20:28.882Z,40635.41
2023-05-15T06:22:55.325Z,40607.47
2023-05-15T06:25:21.864Z,40597.47
2023-05-15T06:27:48.233Z,40619.44
2023-05-15T06:30:15.031Z,40589.50
2023-05-15T06:32:41.914Z,40557.56
2023-05-15T06:35:09.878Z,40557.56
2023-05-15T06:37:36.598Z,40537.63
2023-05-15T06:40:06.465Z,40539.59
2023-05-15T06:42:33.130Z,40549.59
2023-05-15T06:45:00.580Z,40497.72
2023-05-15T06:47:27.127Z,40497.72
2023-05-15T06:49:54.670Z,40525.63
2023-05-15T06:52:21.156Z,40521.66
2023-05-15T06:54:48.306Z,40539.59
2023-05-15T06:57:15.019Z,40501.69
2023-05-15T06:59:41.411Z,40461.78
2023-05-15T07:02:07.832Z,40457.78
2023-05-15T07:04:34.336Z,40457.78
2023-05-15T07:07:00.895Z,40457.78
2023-05-15T07:09:27.283Z,40455.81
2023-05-15T07:11:53.671Z,40461.78
2023-05-15T07:14:20.189Z,40485.72
2023-05-15T07:16:47.191Z,40479.75
2023-05-15T07:19:13.798Z,40471.75
2023-05-15T07:21:40.431Z,40453.81
2023-05-15T07:24:07.240Z,40485.72
2023-05-15T07:26:40.714Z,40459.78
2023-05-15T07:29:13.494Z,40457.78
2023-05-15T07:31:40.956Z,40425.88
2023-05-15T07:34:07.521Z,40403.91
2023-05-15T07:36:34.635Z,40421.88
2023-05-15T07:39:01.009Z,40425.88
2023-05-15T07:41:27.647Z,40407.91
2023-05-15T07:43:54.022Z,40370.00
2023-05-15T07:46:20.581Z,40368.00
2023-05-15T07:48:47.007Z,40350.03
2023-05-15T07:51:13.770Z,40354.03
2023-05-15T07:53:40.171Z,40334.06
2023-05-15T07:56:06.808Z,40338.06
2023-05-15T07:58:35.422Z,40304.16
2023-05-15T08:01:01.866Z,40298.16
2023-05-15T08:03:28.487Z,40294.16
2023-05-15T08:05:54.937Z,40334.06
2023-05-15T08:08:21.497Z,40354.03
2023-05-15T08:10:48.353Z,40356.03
2023-05-15T08:13:14.724Z,40324.09
2023-05-15T08:15:41.154Z,40342.06
2023-05-15T08:18:11.526Z,40326.09
2023-05-15T08:20:38.998Z,40306.13
2023-05-15T08:23:05.517Z,40300.16
2023-05-15T08:25:32.106Z,40270.22
2023-05-15T08:27:58.491Z,40254.25
2023-05-15T08:30:25.037Z,40220.34
2023-05-15T08:32:51.497Z,40240.28
2023-05-15T08:35:18.451Z,40170.47
2023-05-15T08:37:44.902Z,40182.44
2023-05-15T08:40:12.133Z,40158.50
2023-05-15T08:42:55.432Z,40122.56
2023-05-15T08:45:22.569Z,40118.59
2023-05-15T08:47:49.460Z,40130.56
2023-05-15T08:50:17.199Z,40142.53
2023-05-15T08:52:48.484Z,40146.50
2023-05-15T08:55:15.684Z,40142.53
2023-05-15T08:57:43.853Z,40106.59
2023-05-15T09:00:14.812Z,40118.59
2023-05-15T09:02:42.680Z,40104.63
2023-05-15T09:05:10.226Z,40110.59
2023-05-15T09:07:38.966Z,40112.59
2023-05-15T09:10:06.722Z,40058.72
2023-05-15T09:12:34.686Z,40070.69
2023-05-15T09:15:17.517Z,40074.69
2023-05-15T09:17:45.376Z,40066.69
2023-05-15T09:20:35.314Z,40084.66
2023-05-15T09:23:04.731Z,40054.72
2023-05-15T09:25:38.739Z,40046.75
2023-05-15T09:28:06.711Z,40082.66
2023-05-15T09:30:34.675Z,40078.69
2023-05-15T09:33:04.294Z,40076.69
2023-05-15T09:35:34.999Z,40030.78
2023-05-15T09:38:02.420Z,40024.81
2023-05-15T09:40:31.023Z,40034.78
2023-05-15T09:42:58.609Z,40054.72
2023-05-15T09:45:27.296Z,40010.84
2023-05-15T09:47:54.241Z,39990.88
2023-05-15T09:50:23.088Z,39911.06
2023-05-15T09:52:51.588Z,39895.13
2023-05-15T09:55:19.896Z,39915.06
2023-05-15T09:58:06.666Z,39853.22
2023-05-15T10:00:35.224Z,39855.22
2023-05-15T10:03:03.572Z,39847.22
2023-05-15T10:05:42.352Z,39795.38
2023-05-15T10:08:10.000Z,39831.28
2023-05-15T10:10:36.469Z,39839.25
2023-05-15T10:13:04.606Z,39819.31
2023-05-15T10:15:31.689Z,39819.31
2023-05-15T10:17:59.570Z,39817.31
2023-05-15T10:20:26.790Z,39819.31
2023-05-15T10:22:55.869Z,39803.34
2023-05-15T10:25:44.001Z,39815.31
2023-05-15T10:28:11.772Z,39819.31
2023-05-15T10:30:39.125Z,39815.31
2023-05-15T10:33:07.155Z,39793.38
2023-05-15T10:35:39.442Z,39779.41
2023-05-15T10:38:06.394Z,39715.56
2023-05-15T10:40:36.495Z,39715.56
2023-05-15T10:43:03.615Z,39683.63
2023-05-15T10:45:31.861Z,39635.75
2023-05-15T10:47:59.488Z,39496.13
2023-05-15T10:50:26.917Z,39480.16
2023-05-15T10:52:55.205Z,39496.13
2023-05-15T10:55:22.788Z,39458.22
2023-05-15T10:57:49.853Z,39446.25
2023-05-15T11:00:22.506Z,39418.31
2023-05-15T11:02:50.930Z,39372.44
2023-05-15T11:05:17.490Z,39378.41
2023-05-15T11:07:44.155Z,39422.31
2023-05-15T11:10:28.731Z,39380.41
2023-05-15T11:12:56.898Z,39376.41
2023-05-15T11:15:23.393Z,39436.25
2023-05-15T11:18:05.938Z,39444.25
2023-05-15T11:20:40.274Z,39468.19
2023-05-15T11:23:07.377Z,39498.09
2023-05-15T11:25:35.404Z,39581.91
2023-05-15T11:28:03.424Z,39534.00
2023-05-15T11:30:40.332Z,39486.13
2023-05-15T11:33:10.303Z,39440.25
2023-05-15T11:35:43.204Z,39496.13
2023-05-15T11:38:09.625Z,39436.25
2023-05-15T11:40:49.083Z,39394.38
2023-05-15T11:43:27.409Z,39404.34
2023-05-15T11:46:08.623Z,39296.63
2023-05-15T11:48:41.536Z,39155.00
2023-05-15T11:51:24.949Z,39053.28
2023-05-15T11:53:54.449Z,39003.41
2023-05-15T11:56:23.185Z,38849.81
2023-05-15T11:58:55.617Z,38738.13
2023-05-15T12:01:22.081Z,38776.03
2023-05-15T12:03:49.693Z,38845.84
2023-05-15T12:06:16.903Z,38885.72
2023-05-15T12:08:43.801Z,38859.81
2023-05-15T12:11:10.949Z,38797.97
2023-05-15T12:13:37.446Z,38680.28
2023-05-15T12:16:04.784Z,38758.06
2023-05-15T12:18:32.917Z,38760.06
2023-05-15T12:21:00.089Z,38658.34
2023-05-15T12:23:28.424Z,38674.31
2023-05-15T12:26:00.888Z,38700.25
2023-05-15T12:28:28.954Z,38738.13
2023-05-15T12:30:55.837Z,38580.56
2023-05-15T12:33:23.311Z,38566.63
2023-05-15T12:35:54.369Z,38520.75
2023-05-15T12:38:22.669Z,38666.34
2023-05-15T12:40:53.445Z,38638.41
2023-05-15T12:43:20.961Z,38602.50
2023-05-15T12:45:52.377Z,38602.50
2023-05-15T12:48:18.832Z,38612.50
2023-05-15T12:50:45.390Z,38654.38
2023-05-15T12:53:15.349Z,38642.41
2023-05-15T12:55:44.404Z,38656.38
2023-05-15T12:58:12.700Z,38574.59
2023-05-15T13:00:41.639Z,38612.50
2023-05-15T13:03:10.520Z,38520.75
2023-05-15T13:05:38.160Z,38572.59
2023-05-15T13:08:07.286Z,38526.72
2023-05-15T13:10:36.276Z,38498.81
2023-05-15T13:13:02.802Z,38566.63
2023-05-15T13:15:31.718Z,38642.41
2023-05-15T13:18:01.989Z,38626.44
2023-05-15T13:20:32.796Z,38618.47
2023-05-15T13:23:01.197Z,38566.63
2023-05-15T13:25:29.233Z,38526.72
2023-05-15T13:27:59.441Z,38494.81
2023-05-15T13:30:26.249Z,38446.97
2023-05-15T13:32:55.454Z,38512.78
2023-05-15T13:35:22.407Z,38423.03
2023-05-15T13:37:48.856Z,38395.09
2023-05-15T13:40:15.442Z,38425.03
2023-05-15T13:42:42.961Z,38474.88
2023-05-15T13:45:11.984Z,38506.78
2023-05-15T13:47:41.686Z,38534.72
2023-05-15T13:50:12.693Z,38520.75
2023-05-15T13:52:40.393Z,38538.69
2023-05-15T13:55:09.696Z,38550.66
2023-05-15T13:57:40.894Z,38468.91
2023-05-15T14:00:12.170Z,38409.06
2023-05-15T14:02:43.069Z,38383.13
2023-05-15T14:05:11.174Z,38347.25
2023-05-15T14:07:37.917Z,38363.19
2023-05-15T14:10:04.909Z,38323.31
2023-05-15T14:12:32.284Z,38255.50
2023-05-15T14:14:58.916Z,38329.28
2023-05-15T14:17:25.459Z,38203.66
2023-05-15T14:19:52.087Z,38281.44
2023-05-15T14:22:18.697Z,38299.38
2023-05-15T14:24:45.248Z,38303.38
2023-05-15T14:27:11.741Z,38311.34
2023-05-15T14:29:39.331Z,38317.34
2023-05-15T14:32:06.539Z,38315.34
2023-05-15T14:34:33.819Z,38333.28
2023-05-15T14:37:00.236Z,38283.44
2023-05-15T14:39:26.973Z,38203.66
2023-05-15T14:41:53.474Z,38199.69
2023-05-15T14:44:19.854Z,38263.50
2023-05-15T14:46:46.412Z,38199.69
2023-05-15T14:49:12.908Z,38076.03
2023-05-15T14:51:39.759Z,38034.16
2023-05-15T14:54:06.240Z,38127.88
2023-05-15T14:56:32.793Z,38227.59
2023-05-15T14:58:59.254Z,38215.63
2023-05-15T15:01:25.791Z,38265.47
2023-05-15T15:03:52.752Z,38261.50
2023-05-15T15:06:19.440Z,38207.66
2023-05-15T15:08:45.835Z,38267.47
2023-05-15T15:11:12.237Z,38219.63
2023-05-15T15:13:38.602Z,38175.75
2023-05-15T15:16:05.512Z,38193.69
2023-05-15T15:18:32.028Z,38175.75
2023-05-15T15:20:58.614Z,38137.84
2023-05-15T15:23:25.351Z,38167.78
2023-05-15T15:25:52.111Z,38139.84
2023-05-15T15:28:18.518Z,38143.84
2023-05-15T15:30:44.930Z,38143.84
2023-05-15T15:33:11.488Z,38127.88
2023-05-15T15:35:37.945Z,38153.81
2023-05-15T15:38:05.296Z,38151.81
2023-05-15T15:40:31.746Z,38135.88
2023-05-15T15:42:58.143Z,38113.94
2023-05-15T15:45:24.719Z,38086.00
2023-05-15T15:47:51.229Z,38040.16
2023-05-15T15:50:17.751Z,38040.16
2023-05-15T15:52:44.169Z,38032.16
2023-05-15T15:55:10.791Z,38056.09
2023-05-15T15:57:37.587Z,38012.22
2023-05-15T16:00:06.818Z,38052.13
2023-05-15T16:02:33.484Z,38042.13
2023-05-15T16:05:00.392Z,38010.25
2023-05-15T16:07:26.810Z,37994.28
2023-05-15T16:10:00.373Z,38014.22
2023-05-15T16:12:30.483Z,38008.25
2023-05-15T16:15:00.186Z,38008.25
2023-05-15T16:17:30.727Z,38004.25
2023-05-15T16:19:57.131Z,38032.16
2023-05-15T16:22:23.561Z,38010.25
2023-05-15T16:24:50.398Z,38012.22
2023-05-15T16:27:16.775Z,38026.19
2023-05-15T16:29:43.172Z,37996.28
2023-05-15T16:32:10.018Z,38010.25
2023-05-15T16:34:36.525Z,38036.16
2023-05-15T16:37:03.548Z,38036.16
2023-05-15T16:39:32.141Z,38032.16
2023-05-15T16:41:58.602Z,38006.25
2023-05-15T16:44:25.074Z,38008.25
2023-05-15T16:46:51.569Z,37998.28
2023-05-15T16:49:18.182Z,37998.28
2023-05-15T16:51:45.049Z,37988.31
2023-05-15T16:54:11.831Z,38008.25
2023-05-15T16:56:38.729Z,37984.31
2023-05-15T16:59:05.452Z,37998.28
2023-05-15T17:01:32.035Z,37968.38
2023-05-15T17:03:59.035Z,37972.34
2023-05-15T17:06:25.478Z,37980.31
2023-05-15T17:08:51.842Z,38020.22
2023-05-15T17:11:18.305Z,37984.31
2023-05-15T17:13:44.840Z,37956.41
2023-05-15T17:16:11.323Z,38008.25
2023-05-15T17:18:39.739Z,37970.34
2023-05-15T17:21:06.422Z,38012.22
2023-05-15T17:23:32.967Z,38052.13
2023-05-15T17:25:59.489Z,38123.91
2023-05-15T17:28:26.195Z,38117.91
2023-05-15T17:30:52.630Z,38149.81
2023-05-15T17:33:19.013Z,38197.69
2023-05-15T17:35:45.644Z,38167.78
2023-05-15T17:38:12.055Z,38171.75
2023-05-15T17:40:38.556Z,38229.59
2023-05-15T17:43:05.041Z,38255.50
2023-05-15T17:45:32.148Z,38247.53
2023-05-15T17:48:03.488Z,38307.34
2023-05-15T17:50:30.287Z,38303.38
2023-05-15T17:52:56.812Z,38311.34
2023-05-15T17:55:23.255Z,38321.31
2023-05-15T17:57:50.369Z,38289.41
2023-05-15T18:00:17.538Z,38231.59
2023-05-15T18:02:43.988Z,38239.56
2023-05-15T18:05:10.520Z,38255.50
2023-05-15T18:07:37.081Z,38175.75
2023-05-15T18:10:03.808Z,38183.72
2023-05-15T18:12:30.188Z,38167.78
2023-05-15T18:14:57.236Z,38173.75
2023-05-15T18:17:23.713Z,38155.81
2023-05-15T18:19:50.202Z,38145.84
2023-05-15T18:22:16.678Z,38149.81
2023-05-15T18:24:43.109Z,38115.91
2023-05-15T18:27:10.474Z,38107.94
2023-05-15T18:29:36.864Z,38105.94
2023-05-15T18:32:03.322Z,38103.97
2023-05-15T18:34:29.734Z,38072.06
2023-05-15T18:36:56.132Z,38076.03
2023-05-15T18:39:22.664Z,38080.03
2023-05-15T18:41:49.066Z,38072.06
2023-05-15T18:44:15.603Z,38062.09
2023-05-15T18:46:42.404Z,38072.06
2023-05-15T18:49:09.239Z,38056.09
2023-05-15T18:51:35.623Z,38052.13
2023-05-15T18:54:02.593Z,38048.13
2023-05-15T18:56:29.068Z,38062.09
2023-05-15T18:58:55.534Z,38076.03
2023-05-15T19:01:22.151Z,38056.09
2023-05-15T19:03:48.673Z,38032.16
2023-05-15T19:06:19.785Z,38052.13
2023-05-15T19:08:47.974Z,38064.06
2023-05-15T19:11:15.991Z,38040.16
2023-05-15T19:13:42.426Z,37996.28
2023-05-15T19:16:10.123Z,38016.22
2023-05-15T19:18:36.581Z,38016.22
2023-05-15T19:21:04.630Z,38044.13
2023-05-15T19:23:31.024Z,38020.22
2023-05-15T19:25:57.494Z,38012.22
2023-05-15T19:28:23.948Z,38048.13
2023-05-15T19:30:50.838Z,38028.19
2023-05-15T19:33:17.789Z,37992.28
2023-05-15T19:35:44.557Z,37958.41
2023-05-15T19:38:11.338Z,37948.44
2023-05-15T19:40:37.741Z,37948.44
2023-05-15T19:43:04.548Z,37956.41
2023-05-15T19:45:30.971Z,37928.47
2023-05-15T19:47:58.840Z,37948.44
2023-05-15T19:50:25.714Z,37956.41
2023-05-15T19:52:52.199Z,37932.47
2023-05-15T19:55:18.575Z,37920.50
2023-05-15T19:57:45.121Z,37912.53
2023-05-15T20:00:12.393Z,37930.47
2023-05-15T20:02:41.108Z,37876.63
2023-05-15T20:05:08.608Z,37908.53
2023-05-15T20:07:35.506Z,37890.59
2023-05-15T20:10:01.958Z,37872.66
2023-05-15T20:12:28.313Z,37876.63
2023-05-15T20:14:54.736Z,37886.59
2023-05-15T20:17:21.176Z,37890.59
2023-05-15T20:19:49.329Z,37868.66
2023-05-15T20:22:17.177Z,37872.66
2023-05-15T20:24:44.155Z,37858.69
2023-05-15T20:27:11.382Z,37864.69
2023-05-15T20:29:38.756Z,37876.63
2023-05-15T20:32:05.625Z,37872.66
2023-05-15T20:34:32.938Z,37840.75
2023-05-15T20:36:59.319Z,37876.63
2023-05-15T20:39:25.965Z,37860.69
2023-05-15T20:41:52.408Z,37832.78
2023-05-15T20:44:18.807Z,37864.69
2023-05-15T20:46:45.470Z,37884.63
2023-05-15T20:49:11.916Z,37894.59
2023-05-15T20:51:38.286Z,37906.56
2023-05-15T20:54:04.742Z,37908.53
2023-05-15T20:56:31.140Z,37930.47
2023-05-15T20:58:59.618Z,37902.56
2023-05-15T21:01:26.438Z,37928.47
2023-05-15T21:03:52.949Z,37926.50
2023-05-15T21:06:20.124Z,37916.53
2023-05-15T21:08:46.494Z,37900.56
2023-05-15T21:11:13.360Z,37944.44
2023-05-15T21:13:39.795Z,37916.53
2023-05-15T21:16:06.457Z,37936.47
2023-05-15T21:18:32.959Z,37928.47
2023-05-15T21:20:59.358Z,37940.44
2023-05-15T21:23:25.715Z,37920.50
2023-05-15T21:25:53.064Z,37916.53
2023-05-15T21:28:20.250Z,37956.41
2023-05-15T21:30:46.682Z,37960.38
2023-05-15T21:33:13.099Z,37964.38
2023-05-15T21:35:39.714Z,37974.34
2023-05-15T21:38:06.582Z,37960.38
2023-05-15T21:40:32.989Z,37984.31
2023-05-15T21:42:59.361Z,37988.31
2023-05-15T21:45:26.231Z,38008.25
2023-05-15T21:47:53.118Z,38004.25
2023-05-15T21:50:19.596Z,38016.22
2023-05-15T21:52:45.974Z,38016.22
2023-05-15T21:55:12.418Z,38050.13
2023-05-15T21:57:38.788Z,38070.06
2023-05-15T22:00:07.353Z,38080.03
2023-05-15T22:02:35.004Z,38103.97
2023-05-15T22:05:02.072Z,38082.03
2023-05-15T22:07:28.466Z,38119.91
2023-05-15T22:09:54.855Z,38127.88
2023-05-15T22:12:21.522Z,38175.75
2023-05-15T22:14:58.330Z,38183.72
2023-05-15T22:17:27.352Z,38191.69
2023-05-15T22:19:54.018Z,38239.56
2023-05-15T22:22:20.765Z,38253.53
2023-05-15T22:24:47.772Z,38223.59
2023-05-15T22:27:16.476Z,38283.44
2023-05-15T22:29:42.882Z,38319.31
2023-05-15T22:32:09.415Z,38379.16
2023-05-15T22:34:35.992Z,38415.06
2023-05-15T22:37:02.479Z,38456.94
2023-05-15T22:39:28.890Z,38488.84
2023-05-15T22:41:55.725Z,38512.78
2023-05-15T22:44:22.848Z,38598.53
2023-05-15T22:46:49.646Z,38628.44
2023-05-15T22:49:19.200Z,38710.22
2023-05-15T22:51:45.690Z,38774.03
2023-05-15T22:54:12.604Z,38873.75
2023-05-15T22:56:38.996Z,39001.41
2023-05-15T22:59:05.532Z,39077.22
2023-05-15T23:01:32.123Z,39151.00
2023-05-15T23:03:58.634Z,39174.94
2023-05-15T23:06:25.342Z,39190.91
2023-05-15T23:08:51.788Z,39250.75
2023-05-15T23:11:18.297Z,39260.72
2023-05-15T23:13:44.746Z,39342.50
2023-05-15T23:16:11.585Z,39352.47
2023-05-15T23:18:38.053Z,39420.31
2023-05-15T23:21:04.856Z,39542.00
2023-05-15T23:23:31.392Z,39571.91
2023-05-15T23:25:57.811Z,39619.81
2023-05-15T23:28:24.198Z,39687.63
2023-05-15T23:30:54.836Z,39759.44
2023-05-15T23:33:22.233Z,39819.31
2023-05-15T23:35:48.614Z,39865.19
2023-05-15T23:38:15.071Z,39978.91
2023-05-15T23:40:41.608Z,40074.69
2023-05-15T23:43:08.299Z,40162.47
2023-05-15T23:45:35.137Z,40232.31
2023-05-15T23:48:01.594Z,40296.16
2023-05-15T23:50:28.532Z,40330.09
2023-05-15T23:52:55.137Z,40387.94
2023-05-15T23:55:21.535Z,40413.91
2023-05-15T23:57:48.271Z,40451.81
